West Burlington, Iowa
Current Conditions -  °F | °C
As of 6:53 AM on Thursday 27 Nov 2014 (Local Time) from KBRL Reporting Station
Overcast Overcast  
Wind Chill:   Ceiling: 1100
Heat Index: 22°   Visibility: 9mi
Dew Point: 18°   Wind: 16mph
Humidity: 85%   Direction: 310°NW
Pressure: 30.41"   Gusts: 22mph
Location:  40.83°N, 91.16°W
Report Text: KBRL 271253Z AUTO 31014G19KT 9SM OVC011 M06/M08 A3041 RMK AO2 SLP309 T10561078 PWINO FZRANO $
Loading
Personal Weather Stations






























Interactive Weather Map New forecast layout! Learn more

10-Day Weather Forecast

Advertisements
Track Severe Weather on mobile